createdAt,value
2022-09-09T00:01:01.323Z,100423.13
2022-09-09T00:02:12.941Z,100424.97
2022-09-09T00:03:18.927Z,100421.28
2022-09-09T00:04:29.295Z,100422.28
2022-09-09T00:05:40.938Z,100424.16
2022-09-09T00:06:53.059Z,100424.16
2022-09-09T00:07:59.827Z,100429.88
2022-09-09T00:09:06.749Z,100417.47
2022-09-09T00:10:17.547Z,100431.06
2022-09-09T00:11:30.809Z,100431.28
2022-09-09T00:12:43.081Z,100435.59
2022-09-09T00:13:50.096Z,100430.22
2022-09-09T00:14:56.108Z,100429.41
2022-09-09T00:16:03.912Z,100425.22
2022-09-09T00:17:12.705Z,100424.38
2022-09-09T00:18:23.930Z,100438.84
2022-09-09T00:19:33.446Z,100423.09
2022-09-09T00:20:42.284Z,100419.75
2022-09-09T00:21:51.592Z,100417.25
2022-09-09T00:23:01.694Z,100414.72
2022-09-09T00:24:11.695Z,100412.25
2022-09-09T00:25:17.951Z,100415.94
2022-09-09T00:26:25.872Z,100407.41
2022-09-09T00:27:34.310Z,100412.78
2022-09-09T00:28:42.653Z,100416.47
2022-09-09T00:29:49.296Z,100421.84
2022-09-09T00:30:50.999Z,100416.66
2022-09-09T00:32:00.563Z,100416.66
2022-09-09T00:33:14.021Z,100415.66
2022-09-09T00:34:22.410Z,100417.97
2022-09-09T00:35:27.531Z,100412.63
2022-09-09T00:36:30.277Z,100417.97
2022-09-09T00:37:35.972Z,100419.63
2022-09-09T00:38:45.020Z,100417.63
2022-09-09T00:39:48.751Z,100423.63
2022-09-09T00:40:54.439Z,100413.53
2022-09-09T00:42:14.707Z,100415.03
2022-09-09T00:43:32.257Z,100407.63
2022-09-09T00:44:36.344Z,100414.69
2022-09-09T00:46:05.165Z,100416.16
2022-09-09T00:47:26.868Z,100411.63
2022-09-09T00:48:37.337Z,100412.47
2022-09-09T00:49:50.698Z,100409.09
2022-09-09T00:50:57.719Z,100406.63
2022-09-09T00:52:13.749Z,100411.16
2022-09-09T00:53:34.553Z,100410.50
2022-09-09T00:54:47.502Z,100409.00
2022-09-09T00:55:53.421Z,100413.53
2022-09-09T00:57:08.473Z,100414.56
2022-09-09T00:58:10.385Z,100413.53
2022-09-09T00:59:28.197Z,100411.88
2022-09-09T01:00:38.513Z,100409.56
2022-09-09T01:01:40.646Z,100406.41
2022-09-09T01:02:54.444Z,100413.63
2022-09-09T01:04:00.344Z,100406.75
2022-09-09T01:05:12.094Z,100412.13
2022-09-09T01:06:17.406Z,100409.63
2022-09-09T01:07:21.103Z,100409.97
2022-09-09T01:08:43.938Z,100414.88
2022-09-09T01:09:54.523Z,100409.72
2022-09-09T01:10:59.474Z,100410.72
2022-09-09T01:12:10.965Z,100410.72
2022-09-09T01:13:21.276Z,100409.88
2022-09-09T01:14:36.986Z,100408.03
2022-09-09T01:15:41.085Z,100410.72
2022-09-09T01:16:44.908Z,100402.00
2022-09-09T01:18:02.262Z,100411.06
2022-09-09T01:19:05.977Z,100405.88
2022-09-09T01:20:15.216Z,100406.06
2022-09-09T01:21:28.656Z,100409.75
2022-09-09T01:22:37.851Z,100411.59
2022-09-09T01:23:52.623Z,100397.34
2022-09-09T01:25:20.593Z,100399.38
2022-09-09T01:26:31.118Z,100402.25
2022-09-09T01:27:35.634Z,100404.94
2022-09-09T01:28:38.468Z,100401.41
2022-09-09T01:29:41.428Z,100403.44
2022-09-09T01:30:43.274Z,100407.16
2022-09-09T01:31:56.526Z,100404.63
2022-09-09T01:33:01.282Z,100402.78
2022-09-09T01:34:10.824Z,100401.94
2022-09-09T01:35:19.328Z,100400.09
2022-09-09T01:36:31.549Z,100403.63
2022-09-09T01:37:33.111Z,100403.63
2022-09-09T01:38:38.016Z,100405.47
2022-09-09T01:39:43.731Z,100407.16
2022-09-09T01:40:46.414Z,100399.91
2022-09-09T01:41:49.394Z,100395.38
2022-09-09T01:42:52.077Z,100402.44
2022-09-09T01:43:55.792Z,100401.41
2022-09-09T01:44:58.324Z,100396.06
2022-09-09T01:46:02.176Z,100394.00
2022-09-09T01:47:05.886Z,100402.72
2022-09-09T01:48:07.659Z,100402.53
2022-09-09T01:49:10.833Z,100400.69
2022-09-09T01:50:15.967Z,100397.00
2022-09-09T01:51:18.995Z,100390.78
2022-09-09T01:52:20.624Z,100387.91
2022-09-09T01:53:24.054Z,100396.63
2022-09-09T01:54:27.944Z,100392.91
2022-09-09T01:55:33.575Z,100397.94
2022-09-09T01:56:45.726Z,100391.53
2022-09-09T01:58:01.437Z,100396.56
2022-09-09T01:59:14.136Z,100401.56
2022-09-09T02:00:17.047Z,100403.25
2022-09-09T02:01:29.018Z,100386.94
2022-09-09T02:02:38.479Z,100395.66
2022-09-09T02:03:44.968Z,100397.31
2022-09-09T02:04:50.691Z,100392.59
2022-09-09T02:06:00.968Z,100392.59
2022-09-09T02:07:03.620Z,100400.66
2022-09-09T02:08:08.408Z,100389.06
2022-09-09T02:09:14.783Z,100398.81
2022-09-09T02:10:20.872Z,100393.63
2022-09-09T02:11:25.881Z,100397.78
2022-09-09T02:12:31.314Z,100398.44
2022-09-09T02:13:38.687Z,100401.97
2022-09-09T02:14:43.194Z,100399.09
2022-09-09T02:15:54.710Z,100400.78
2022-09-09T02:17:02.712Z,100402.44
2022-09-09T02:18:08.931Z,100398.94
2022-09-09T02:19:14.254Z,100400.56
2022-09-09T02:20:18.239Z,100401.25
2022-09-09T02:21:20.398Z,100395.88
2022-09-09T02:22:26.123Z,100397.53
2022-09-09T02:23:29.402Z,100397.34
2022-09-09T02:24:35.269Z,100408.09
2022-09-09T02:25:38.116Z,100400.03
2022-09-09T02:26:44.508Z,100402.56
2022-09-09T02:27:51.702Z,100399.66
2022-09-09T02:28:59.283Z,100401.34
2022-09-09T02:30:03.617Z,100398.81
2022-09-09T02:31:07.409Z,100403.00
2022-09-09T02:32:13.967Z,100403.84
2022-09-09T02:33:16.867Z,100395.97
2022-09-09T02:34:21.245Z,100392.25
2022-09-09T02:35:27.161Z,100399.31
2022-09-09T02:36:34.274Z,100398.28
2022-09-09T02:37:40.663Z,100393.09
2022-09-09T02:38:46.725Z,100393.94
2022-09-09T02:39:49.827Z,100395.59
2022-09-09T02:40:51.476Z,100393.94
2022-09-09T02:41:54.337Z,100402.81
2022-09-09T02:42:56.280Z,100399.31
2022-09-09T02:44:00.279Z,100393.75
2022-09-09T02:45:01.923Z,100395.59
2022-09-09T02:46:14.043Z,100392.72
2022-09-09T02:47:29.486Z,100397.44
2022-09-09T02:48:39.222Z,100388.56
2022-09-09T02:49:52.591Z,100390.22
2022-09-09T02:51:05.921Z,100395.59
2022-09-09T02:52:09.726Z,100388.56
2022-09-09T02:53:18.463Z,100389.38
2022-09-09T02:54:27.406Z,100389.38
2022-09-09T02:55:39.960Z,100390.22
2022-09-09T02:56:46.969Z,100386.53
2022-09-09T02:57:51.218Z,100381.16
2022-09-09T02:58:52.791Z,100389.22
2022-09-09T02:59:59.652Z,100387.53
2022-09-09T03:01:03.867Z,100386.72
2022-09-09T03:02:06.104Z,100388.56
2022-09-09T03:03:10.630Z,100381.50
2022-09-09T03:04:12.257Z,100386.06
2022-09-09T03:05:15.014Z,100383.38
2022-09-09T03:06:17.471Z,100382.53
2022-09-09T03:07:20.269Z,100383.53
2022-09-09T03:08:22.987Z,100379.84
2022-09-09T03:09:24.754Z,100380.84
2022-09-09T03:10:27.303Z,100378.19
2022-09-09T03:11:29.230Z,100374.84
2022-09-09T03:12:32.207Z,100380.22
2022-09-09T03:13:36.651Z,100373.81
2022-09-09T03:14:39.394Z,100376.50
2022-09-09T03:15:42.356Z,100375.69
2022-09-09T03:16:45.046Z,100378.53
2022-09-09T03:17:46.636Z,100378.53
2022-09-09T03:18:49.966Z,100381.22
2022-09-09T03:19:53.299Z,100374.19
2022-09-09T03:20:55.949Z,100374.19
2022-09-09T03:21:57.647Z,100379.56
2022-09-09T03:23:01.971Z,100369.84
2022-09-09T03:24:04.397Z,100373.53
2022-09-09T03:25:07.635Z,100370.66
2022-09-09T03:26:09.230Z,100369.00
2022-09-09T03:27:11.761Z,100372.69
2022-09-09T03:28:13.310Z,100371.69
2022-09-09T03:29:16.447Z,100364.47
2022-09-09T03:30:17.996Z,100366.31
2022-09-09T03:31:22.134Z,100369.84
2022-09-09T03:32:24.022Z,100370.66
2022-09-09T03:33:26.762Z,100370.84
2022-09-09T03:34:28.339Z,100373.53
2022-09-09T03:35:30.884Z,100375.22
2022-09-09T03:36:34.367Z,100369.84
2022-09-09T03:37:35.956Z,100367.16
2022-09-09T03:38:38.602Z,100365.66
2022-09-09T03:39:40.229Z,100375.59
2022-09-09T03:40:51.076Z,100364.00
2022-09-09T03:41:52.731Z,100377.59
2022-09-09T03:42:55.274Z,100369.75
2022-09-09T03:43:57.054Z,100375.91
2022-09-09T03:45:00.304Z,100376.97
2022-09-09T03:46:01.933Z,100371.94
2022-09-09T03:47:07.177Z,100375.66
2022-09-09T03:48:12.817Z,100377.50
2022-09-09T03:49:14.490Z,100375.81
2022-09-09T03:50:17.067Z,100369.81
2022-09-09T03:51:19.270Z,100365.63
2022-09-09T03:52:23.827Z,100365.00
2022-09-09T03:53:25.951Z,100369.69
2022-09-09T03:54:28.733Z,100365.34
2022-09-09T03:55:30.297Z,100366.38
2022-09-09T03:56:32.933Z,100369.22
2022-09-09T03:57:35.877Z,100362.38
2022-09-09T03:58:40.170Z,100365.06
2022-09-09T03:59:41.760Z,100368.09
2022-09-09T04:00:45.972Z,100362.75
2022-09-09T04:01:48.144Z,100370.78
2022-09-09T04:02:54.909Z,100368.09
2022-09-09T04:03:58.959Z,100378.00
2022-09-09T04:05:02.012Z,100377.16
2022-09-09T04:06:05.011Z,100377.38
2022-09-09T04:07:08.016Z,100375.69
2022-09-09T04:08:09.584Z,100378.22
2022-09-09T04:09:12.112Z,100376.53
2022-09-09T04:10:14.441Z,100363.94
2022-09-09T04:11:17.507Z,100368.47
2022-09-09T04:12:19.097Z,100370.97
2022-09-09T04:13:21.770Z,100371.81
2022-09-09T04:14:23.340Z,100374.47
2022-09-09T04:15:25.840Z,100374.47
2022-09-09T04:16:27.632Z,100375.53
2022-09-09T04:17:30.126Z,100376.31
2022-09-09T04:18:35.312Z,100377.16
2022-09-09T04:19:37.927Z,100382.53
2022-09-09T04:20:39.838Z,100379.00
2022-09-09T04:21:43.197Z,100378.00
2022-09-09T04:22:44.766Z,100372.63
2022-09-09T04:23:47.273Z,100380.53
2022-09-09T04:24:49.028Z,100372.47
2022-09-09T04:25:53.223Z,100370.59
2022-09-09T04:26:55.269Z,100375.97
2022-09-09T04:27:58.351Z,100373.13
2022-09-09T04:28:59.894Z,100364.88
2022-09-09T04:30:02.385Z,100371.06
2022-09-09T04:31:08.548Z,100375.44
2022-09-09T04:32:11.085Z,100382.28
2022-09-09T04:33:13.599Z,100376.06
2022-09-09T04:34:17.516Z,100383.97
2022-09-09T04:35:19.613Z,100375.75
2022-09-09T04:36:22.479Z,100372.00
2022-09-09T04:37:25.742Z,100375.38
2022-09-09T04:38:28.245Z,100373.69
2022-09-09T04:39:29.922Z,100371.84
2022-09-09T04:40:34.039Z,100373.50
2022-09-09T04:41:36.816Z,100381.56
2022-09-09T04:42:38.553Z,100379.72
2022-09-09T04:43:41.265Z,100373.31
2022-09-09T04:44:44.747Z,100370.66
2022-09-09T04:45:49.706Z,100374.81
2022-09-09T04:46:52.338Z,100372.31
2022-09-09T04:47:54.131Z,100373.97
2022-09-09T04:48:56.616Z,100376.66
2022-09-09T04:49:59.932Z,100368.59
2022-09-09T04:51:05.557Z,100370.28
2022-09-09T04:52:07.083Z,100372.13
2022-09-09T04:53:10.090Z,100372.13
2022-09-09T04:54:12.592Z,100374.63
2022-09-09T04:55:15.435Z,100376.28
2022-09-09T04:56:18.329Z,100377.97
2022-09-09T04:57:20.901Z,100375.47
2022-09-09T04:58:23.449Z,100377.13
2022-09-09T04:59:26.250Z,100375.28
2022-09-09T05:00:27.874Z,100381.66
2022-09-09T05:01:30.437Z,100367.22
2022-09-09T05:02:33.181Z,100370.75
2022-09-09T05:03:35.793Z,100373.44
2022-09-09T05:04:37.359Z,100372.44
2022-09-09T05:05:41.256Z,100375.13
2022-09-09T05:06:43.204Z,100378.59
2022-09-09T05:07:45.728Z,100377.59
2022-09-09T05:08:47.631Z,100369.53
2022-09-09T05:09:50.304Z,100379.28
2022-09-09T05:10:51.834Z,100370.22
2022-09-09T05:11:54.341Z,100370.22
2022-09-09T05:12:56.078Z,100370.22
2022-09-09T05:13:58.746Z,100370.22
2022-09-09T05:15:00.403Z,100367.31
2022-09-09T05:16:03.424Z,100373.53
2022-09-09T05:17:05.053Z,100371.84
2022-09-09T05:18:08.118Z,100378.06
2022-09-09T05:19:09.936Z,100379.75
2022-09-09T05:20:17.176Z,100370.84
2022-09-09T05:21:23.884Z,100371.50
2022-09-09T05:22:25.458Z,100369.00
2022-09-09T05:23:28.566Z,100368.81
2022-09-09T05:24:33.979Z,100375.84
2022-09-09T05:25:36.532Z,100367.78
2022-09-09T05:26:38.249Z,100363.44
2022-09-09T05:27:40.812Z,100374.84
2022-09-09T05:28:42.475Z,100369.47
2022-09-09T05:29:45.601Z,100371.13
2022-09-09T05:30:47.144Z,100365.75
2022-09-09T05:31:49.904Z,100369.47
2022-09-09T05:32:51.557Z,100365.75
2022-09-09T05:33:54.080Z,100364.09
2022-09-09T05:34:56.626Z,100357.88
2022-09-09T05:35:59.389Z,100357.88
2022-09-09T05:37:04.141Z,100364.09
2022-09-09T05:38:08.106Z,100367.63
2022-09-09T05:39:12.906Z,100362.06
2022-09-09T05:40:14.807Z,100365.75
2022-09-09T05:41:18.500Z,100364.75
2022-09-09T05:42:20.082Z,100365.38
2022-09-09T05:43:22.627Z,100365.38
2022-09-09T05:44:24.897Z,100371.59
2022-09-09T05:45:27.402Z,100367.72
2022-09-09T05:46:29.034Z,100369.56
2022-09-09T05:47:31.592Z,100372.06
2022-09-09T05:48:35.115Z,100367.53
2022-09-09T05:49:37.762Z,100364.66
2022-09-09T05:50:39.444Z,100366.31
2022-09-09T05:51:43.693Z,100364.28
2022-09-09T05:52:46.745Z,100368.63
2022-09-09T05:53:50.059Z,100365.94
2022-09-09T05:54:52.163Z,100370.31
2022-09-09T05:56:01.464Z,100372.00
2022-09-09T05:57:04.216Z,100375.50
2022-09-09T05:58:05.811Z,100380.06
2022-09-09T05:59:08.604Z,100376.31
2022-09-09T06:00:11.695Z,100376.16
2022-09-09T06:01:17.711Z,100377.00
2022-09-09T06:02:19.428Z,100377.00
2022-09-09T06:03:24.500Z,100375.78
2022-09-09T06:04:26.058Z,100373.94
2022-09-09T06:05:29.531Z,100376.41
2022-09-09T06:06:32.812Z,100375.25
2022-09-09T06:07:35.621Z,100372.56
2022-09-09T06:08:40.421Z,100380.28
2022-09-09T06:09:45.526Z,100373.06
2022-09-09T06:10:47.106Z,100379.91
2022-09-09T06:11:50.055Z,100382.38
2022-09-09T06:12:53.812Z,100381.22
2022-09-09T06:13:56.307Z,100379.16
2022-09-09T06:14:57.888Z,100371.72
2022-09-09T06:16:01.488Z,100382.09
2022-09-09T06:17:04.269Z,100374.72
2022-09-09T06:18:05.931Z,100379.72
2022-09-09T06:19:13.116Z,100386.75
2022-09-09T06:20:14.928Z,100380.19
2022-09-09T06:21:19.078Z,100376.09
2022-09-09T06:22:21.721Z,100383.97
2022-09-09T06:23:23.563Z,100381.09
2022-09-09T06:24:27.479Z,100383.59
2022-09-09T06:25:29.469Z,100382.38
2022-09-09T06:26:33.899Z,100382.19
2022-09-09T06:27:35.481Z,100378.50
2022-09-09T06:28:38.945Z,100387.19
2022-09-09T06:29:40.515Z,100375.81
2022-09-09T06:30:43.190Z,100385.16
2022-09-09T06:31:45.809Z,100383.97
2022-09-09T06:32:47.435Z,100391.00
2022-09-09T06:33:50.956Z,100379.38
2022-09-09T06:34:53.601Z,100382.06
2022-09-09T06:35:55.982Z,100381.06
2022-09-09T06:36:59.242Z,100386.44
2022-09-09T06:38:00.937Z,100379.03
2022-09-09T06:39:03.617Z,100380.88
2022-09-09T06:40:08.022Z,100379.69
2022-09-09T06:41:11.691Z,100385.69
2022-09-09T06:42:13.347Z,100380.97
2022-09-09T06:43:15.920Z,100387.81
2022-09-09T06:44:18.434Z,100385.59
2022-09-09T06:45:20.088Z,100386.88
2022-09-09T06:46:24.627Z,100386.69
2022-09-09T06:47:26.284Z,100384.44
2022-09-09T06:48:29.831Z,100383.22
2022-09-09T06:49:33.559Z,100390.75
2022-09-09T06:50:35.803Z,100385.16
2022-09-09T06:51:43.472Z,100376.06
2022-09-09T06:52:48.562Z,100384.97
2022-09-09T06:53:54.408Z,100392.22
2022-09-09T06:54:59.293Z,100390.19
2022-09-09T06:56:03.329Z,100386.28
2022-09-09T06:57:27.114Z,100384.59
2022-09-09T06:58:31.355Z,100387.91
2022-09-09T06:59:33.965Z,100385.94
2022-09-09T07:00:38.762Z,100383.03
2022-09-09T07:01:42.422Z,100379.94
2022-09-09T07:02:45.835Z,100388.03
2022-09-09T07:03:49.578Z,100389.69
2022-09-09T07:04:52.517Z,100389.53
2022-09-09T07:05:57.653Z,100392.84
2022-09-09T07:07:00.241Z,100384.38
2022-09-09T07:08:03.088Z,100387.38
2022-09-09T07:09:07.687Z,100395.06
2022-09-09T07:10:09.850Z,100386.97
2022-09-09T07:11:13.964Z,100393.19
2022-09-09T07:12:16.495Z,100395.69
2022-09-09T07:13:25.198Z,100394.91
2022-09-09T07:14:28.280Z,100392.03
2022-09-09T07:15:31.367Z,100397.88
2022-09-09T07:16:34.628Z,100400.56
2022-09-09T07:17:37.175Z,100400.34
2022-09-09T07:18:39.731Z,100393.50
2022-09-09T07:19:42.344Z,100396.19
2022-09-09T07:20:43.879Z,100399.91
2022-09-09T07:21:46.658Z,100396.59
2022-09-09T07:22:48.422Z,100398.81
2022-09-09T07:23:50.973Z,100396.97
2022-09-09T07:24:53.497Z,100398.81
2022-09-09T07:25:55.288Z,100410.22
2022-09-09T07:26:59.435Z,100404.66
2022-09-09T07:28:01.292Z,100405.28
2022-09-09T07:29:04.431Z,100405.97
2022-09-09T07:30:07.540Z,100401.81
2022-09-09T07:31:17.410Z,100404.16
2022-09-09T07:32:23.905Z,100413.50
2022-09-09T07:33:27.305Z,100406.72
2022-09-09T07:34:28.902Z,100409.66
2022-09-09T07:35:31.432Z,100405.53
2022-09-09T07:36:35.953Z,100401.44
2022-09-09T07:37:37.719Z,100410.16
2022-09-09T07:38:42.056Z,100414.13
2022-09-09T07:39:44.892Z,100412.72
2022-09-09T07:40:47.088Z,100418.56
2022-09-09T07:41:51.872Z,100415.25
2022-09-09T07:42:55.814Z,100415.75
2022-09-09T07:43:57.558Z,100413.69
2022-09-09T07:45:00.340Z,100425.09
2022-09-09T07:46:03.356Z,100413.94
2022-09-09T07:47:05.093Z,100425.56
2022-09-09T07:48:08.054Z,100424.53
2022-09-09T07:49:11.670Z,100417.47
2022-09-09T07:50:13.303Z,100422.69
2022-09-09T07:51:19.208Z,100432.41
2022-09-09T07:52:22.343Z,100419.78
2022-09-09T07:53:23.934Z,100421.22
2022-09-09T07:54:27.023Z,100419.63
2022-09-09T07:55:28.694Z,100422.56
2022-09-09T07:56:33.644Z,100432.56
2022-09-09T07:57:37.052Z,100421.38
2022-09-09T07:58:42.025Z,100426.38
2022-09-09T07:59:44.621Z,100428.88
2022-09-09T08:00:46.306Z,100427.44
2022-09-09T08:01:54.335Z,100427.59
2022-09-09T08:02:56.059Z,100433.84
2022-09-09T08:04:01.952Z,100427.22
2022-09-09T08:05:03.896Z,100430.56
2022-09-09T08:06:09.077Z,100436.56
2022-09-09T08:07:11.735Z,100432.22
2022-09-09T08:08:13.294Z,100423.94
2022-09-09T08:09:16.735Z,100429.31
2022-09-09T08:10:19.344Z,100428.69
2022-09-09T08:11:21.881Z,100426.38
2022-09-09T08:12:25.341Z,100427.59
2022-09-09T08:13:28.106Z,100419.34
2022-09-09T08:14:31.941Z,100428.69
2022-09-09T08:15:34.884Z,100427.25
2022-09-09T08:16:41.235Z,100430.59
2022-09-09T08:17:44.019Z,100425.22
2022-09-09T08:18:46.671Z,100422.50
2022-09-09T08:19:48.249Z,100427.69
2022-09-09T08:20:50.846Z,100419.81
2022-09-09T08:21:53.463Z,100427.50
2022-09-09T08:22:56.241Z,100428.97
2022-09-09T08:24:00.253Z,100430.66
2022-09-09T08:25:03.146Z,100429.81
2022-09-09T08:26:07.857Z,100435.19
2022-09-09T08:27:10.805Z,100425.44
2022-09-09T08:28:16.834Z,100425.88
2022-09-09T08:29:19.911Z,100429.00
2022-09-09T08:30:22.805Z,100423.22
2022-09-09T08:31:27.410Z,100423.66
2022-09-09T08:32:30.265Z,100427.81
2022-09-09T08:33:31.820Z,100427.81
2022-09-09T08:34:34.934Z,100415.34
2022-09-09T08:35:37.046Z,100421.78
2022-09-09T08:36:43.194Z,100425.09
2022-09-09T08:37:44.956Z,100422.00
2022-09-09T08:38:49.957Z,100422.00
2022-09-09T08:39:53.954Z,100425.53
2022-09-09T08:41:05.669Z,100424.72
2022-09-09T08:42:29.926Z,100422.41
2022-09-09T08:43:33.424Z,100427.81
2022-09-09T08:44:49.350Z,100432.81
2022-09-09T08:46:02.802Z,100430.75
2022-09-09T08:47:14.542Z,100424.97
2022-09-09T08:48:35.963Z,100422.50
2022-09-09T08:50:07.492Z,100422.75
2022-09-09T08:51:11.752Z,100425.50
2022-09-09T08:52:19.651Z,100421.31
2022-09-09T08:53:25.996Z,100421.75
2022-09-09T08:54:51.057Z,100420.34
2022-09-09T08:55:56.688Z,100418.47
2022-09-09T08:56:59.212Z,100423.88
2022-09-09T08:58:07.497Z,100418.47
2022-09-09T08:59:15.764Z,100426.75
2022-09-09T09:00:17.311Z,100425.72
2022-09-09T09:01:37.368Z,100438.81
2022-09-09T09:02:50.162Z,100432.19
2022-09-09T09:04:00.864Z,100429.47
2022-09-09T09:05:19.419Z,100427.44
2022-09-09T09:06:37.220Z,100435.31
2022-09-09T09:07:52.474Z,100434.09
2022-09-09T09:09:02.499Z,100435.31
2022-09-09T09:10:39.936Z,100429.28
2022-09-09T09:11:40.052Z,100430.53
2022-09-09T09:12:44.031Z,100429.88
2022-09-09T09:13:53.138Z,100433.63
2022-09-09T09:14:56.439Z,100437.38
2022-09-09T09:16:12.214Z,100440.47
2022-09-09T09:17:19.997Z,100444.59
2022-09-09T09:18:22.447Z,100436.72
2022-09-09T09:19:27.135Z,100437.75
2022-09-09T09:20:46.698Z,100427.78
2022-09-09T09:21:55.216Z,100428.81
2022-09-09T09:23:02.459Z,100443.31
2022-09-09T09:24:09.860Z,100438.34
2022-09-09T09:25:17.935Z,100443.72
2022-09-09T09:26:23.107Z,100433.16
2022-09-09T09:27:33.029Z,100443.09
2022-09-09T09:28:37.166Z,100443.28
2022-09-09T09:30:03.497Z,100439.56
2022-09-09T09:31:07.671Z,100439.56
2022-09-09T09:32:15.218Z,100438.34
2022-09-09T09:33:22.550Z,100442.13
2022-09-09T09:34:26.009Z,100436.75
2022-09-09T09:35:27.800Z,100437.78
2022-09-09T09:36:37.202Z,100442.19
2022-09-09T09:40:28.828Z,100443.69
2022-09-09T09:41:32.339Z,100442.66
2022-09-09T09:42:34.839Z,100443.94
2022-09-09T09:43:38.190Z,100436.88
2022-09-09T09:44:40.881Z,100438.97
2022-09-09T09:45:55.288Z,100430.66
2022-09-09T09:47:09.517Z,100429.84
2022-09-09T09:48:14.419Z,100440.22
2022-09-09T09:49:18.248Z,100433.53
2022-09-09T09:50:22.129Z,100443.09
2022-09-09T09:51:25.363Z,100435.63
2022-09-09T09:52:30.228Z,100436.03
2022-09-09T09:53:34.324Z,100432.69
2022-09-09T09:54:41.255Z,100423.72
2022-09-09T09:55:51.267Z,100431.84
2022-09-09T09:56:53.933Z,100436.03
2022-09-09T09:58:02.537Z,100424.81
2022-09-09T09:59:13.142Z,100424.19
2022-09-09T10:00:25.914Z,100436.25
2022-09-09T10:01:29.050Z,100429.84
2022-09-09T10:02:40.850Z,100433.00
2022-09-09T10:03:51.877Z,100431.13
2022-09-09T10:05:05.496Z,100426.97
2022-09-09T10:06:07.497Z,100426.34
2022-09-09T10:07:12.506Z,100428.63
2022-09-09T10:08:18.531Z,100429.06
2022-09-09T10:09:28.285Z,100427.63
2022-09-09T10:10:46.192Z,100427.81
2022-09-09T10:11:59.763Z,100426.38
2022-09-09T10:13:12.847Z,100423.25
2022-09-09T10:14:22.662Z,100415.75
2022-09-09T10:15:44.669Z,100421.16
2022-09-09T10:17:00.963Z,100413.88
2022-09-09T10:18:22.178Z,100417.41
2022-09-09T10:19:32.827Z,100425.34
2022-09-09T10:20:46.623Z,100422.41
2022-09-09T10:22:08.066Z,100422.00
2022-09-09T10:23:27.133Z,100422.41
2022-09-09T10:25:02.468Z,100425.53
2022-09-09T10:26:18.478Z,100427.81
2022-09-09T10:27:29.742Z,100425.75
2022-09-09T10:28:50.252Z,100419.91
2022-09-09T10:30:09.651Z,100419.28
2022-09-09T10:31:23.681Z,100426.56
2022-09-09T10:32:39.432Z,100421.56
2022-09-09T10:33:51.858Z,100424.69
2022-09-09T10:34:58.240Z,100411.59
2022-09-09T10:36:10.755Z,100412.25
2022-09-09T10:37:24.394Z,100414.72
2022-09-09T10:38:36.762Z,100414.53
2022-09-09T10:39:43.042Z,100417.66
2022-09-09T10:41:13.306Z,100414.28
2022-09-09T10:42:16.260Z,100412.00
2022-09-09T10:43:31.711Z,100412.00
2022-09-09T10:44:49.494Z,100416.59
2022-09-09T10:46:04.817Z,100408.69
2022-09-09T10:47:27.889Z,100409.91
2022-09-09T10:48:38.647Z,100404.13
2022-09-09T10:50:04.477Z,100413.88
2022-09-09T10:51:30.864Z,100413.69
2022-09-09T10:52:41.953Z,100398.66
2022-09-09T10:53:55.224Z,100407.00
2022-09-09T10:55:03.527Z,100409.13
2022-09-09T10:56:11.335Z,100406.00
2022-09-09T10:57:18.086Z,100402.84
2022-09-09T10:58:27.421Z,100406.41
2022-09-09T10:59:32.464Z,100408.25
2022-09-09T11:00:42.396Z,100402.22
2022-09-09T11:01:49.455Z,100399.09
2022-09-09T11:02:57.714Z,100399.31
2022-09-09T11:04:06.996Z,100394.31
2022-09-09T11:05:20.988Z,100403.47
2022-09-09T11:06:29.900Z,100400.75
2022-09-09T11:07:41.662Z,100399.53
2022-09-09T11:08:44.609Z,100399.94
2022-09-09T11:12:03.551Z,100398.91
2022-09-09T11:13:17.040Z,100392.88
2022-09-09T11:14:28.628Z,100397.66
2022-09-09T11:15:39.882Z,100398.28
2022-09-09T11:16:49.056Z,100405.56
2022-09-09T11:17:55.566Z,100405.56
2022-09-09T11:19:03.751Z,100397.84
2022-09-09T11:20:12.514Z,100396.63
2022-09-09T11:21:24.993Z,100406.59
2022-09-09T11:22:32.783Z,100409.47
2022-09-09T11:23:42.026Z,100415.31
2022-09-09T11:24:51.471Z,100418.00
2022-09-09T11:25:57.988Z,100416.78
2022-09-09T11:27:04.889Z,100405.78
2022-09-09T11:28:23.430Z,100414.53
2022-09-09T11:30:01.741Z,100417.22
2022-09-09T11:31:23.522Z,100408.47
2022-09-09T11:32:46.515Z,100421.56
2022-09-09T11:33:59.863Z,100422.63
2022-09-09T11:35:14.109Z,100409.09
2022-09-09T11:36:46.381Z,100411.19
2022-09-09T11:38:03.847Z,100412.44
2022-09-09T11:39:25.298Z,100403.88
2022-09-09T11:40:31.345Z,100408.25
2022-09-09T11:41:38.110Z,100403.88
2022-09-09T11:42:40.665Z,100404.91
2022-09-09T11:43:45.945Z,100406.00
2022-09-09T11:44:47.800Z,100401.81
2022-09-09T11:45:58.788Z,100403.47
2022-09-09T11:47:02.701Z,100402.63
2022-09-09T11:48:07.725Z,100404.91
2022-09-09T11:50:35.320Z,100413.69
2022-09-09T11:51:37.888Z,100405.13
2022-09-09T11:52:43.180Z,100408.69
2022-09-09T11:53:55.411Z,100395.75
2022-09-09T11:54:57.408Z,100405.56
2022-09-09T11:56:06.714Z,100409.28
2022-09-09T11:57:25.842Z,100414.28
2022-09-09T11:58:33.570Z,100407.00
2022-09-09T11:59:37.624Z,100411.38
2022-09-09T12:00:42.837Z,100405.75
2022-09-09T12:01:47.768Z,100405.31
2022-09-09T12:02:51.123Z,100404.88
2022-09-09T12:04:04.231Z,100415.09
2022-09-09T12:05:10.528Z,100413.84
2022-09-09T12:06:19.308Z,100419.88
2022-09-09T12:07:33.596Z,100418.22
2022-09-09T12:08:37.868Z,100415.50
2022-09-09T12:09:52.614Z,100410.69
2022-09-09T12:10:55.888Z,100416.53
2022-09-09T12:12:09.811Z,100412.78
2022-09-09T12:13:20.418Z,100403.81
2022-09-09T12:14:24.570Z,100405.28
2022-09-09T12:15:30.721Z,100408.22
2022-09-09T12:16:35.443Z,100407.81
2022-09-09T12:17:44.100Z,100414.06
2022-09-09T12:18:46.770Z,100417.38
2022-09-09T12:19:50.024Z,100407.38
2022-09-09T12:21:02.814Z,100399.88
2022-09-09T12:22:13.878Z,100410.06
2022-09-09T12:23:33.055Z,100411.94
2022-09-09T12:24:45.553Z,100398.41
2022-09-09T12:26:23.700Z,100398.59
2022-09-09T12:27:32.482Z,100391.75
2022-09-09T12:28:51.688Z,100389.88
2022-09-09T12:30:02.940Z,100394.47
2022-09-09T12:31:11.049Z,100393.44
2022-09-09T12:32:18.658Z,100398.22
2022-09-09T12:33:24.523Z,100408.66
2022-09-09T12:34:36.879Z,100408.25
2022-09-09T12:35:40.889Z,100398.88
2022-09-09T12:36:48.656Z,100413.88
2022-09-09T12:37:57.930Z,100409.31
2022-09-09T12:39:14.232Z,100403.28
2022-09-09T12:40:24.018Z,100401.59
2022-09-09T12:41:29.283Z,100411.16
2022-09-09T12:42:37.886Z,100412.63
2022-09-09T12:43:43.131Z,100403.25
2022-09-09T12:44:55.749Z,100396.38
2022-09-09T12:46:01.813Z,100407.00